createdAt,value
2018-09-14T08:06:35.665Z,12.90
2018-09-14T08:09:04.956Z,12.60
2018-09-14T08:11:33.044Z,12.20
2018-09-14T08:14:01.167Z,14.53
2018-09-14T08:16:29.244Z,12.67
2018-09-14T08:18:57.443Z,12.30
2018-09-14T08:21:25.581Z,13.30
2018-09-14T08:23:53.660Z,12.00
2018-09-14T08:26:21.739Z,11.88
2018-09-14T08:28:49.852Z,13.65
2018-09-14T08:31:17.937Z,13.70
2018-09-14T08:33:46.024Z,14.80
2018-09-14T08:36:14.379Z,13.35
2018-09-14T08:38:42.497Z,13.23
2018-09-14T08:53:22.263Z,12.33
2018-09-14T08:55:50.401Z,13.10
2018-09-14T08:58:18.477Z,14.63
2018-09-14T09:00:46.585Z,14.30
2018-09-14T09:03:14.700Z,14.17
2018-09-14T09:05:42.802Z,14.30
2018-09-14T09:08:10.896Z,17.10
2018-09-14T09:10:38.975Z,13.30
2018-09-14T09:13:07.694Z,15.38
2018-09-14T09:15:36.135Z,13.70
2018-09-14T09:18:04.211Z,12.70
2018-09-14T09:20:32.291Z,14.10
2018-09-14T09:23:00.617Z,13.93
2018-09-14T09:25:28.715Z,12.43
2018-09-14T09:27:56.810Z,11.53
2018-09-14T09:30:24.925Z,13.17
2018-09-14T09:32:53.006Z,11.23
2018-09-14T09:35:21.094Z,13.15
2018-09-14T09:37:49.208Z,11.43
2018-09-14T09:40:17.319Z,12.27
2018-09-14T09:42:45.411Z,12.07
2018-09-14T09:45:13.517Z,12.80
2018-09-14T09:47:41.600Z,10.20
2018-09-14T09:50:09.758Z,12.53
2018-09-14T09:52:37.839Z,13.03
2018-09-14T09:55:05.943Z,13.63
2018-09-14T09:57:34.019Z,14.93
2018-09-14T10:00:02.142Z,13.93
2018-09-14T10:02:38.336Z,14.97
2018-09-14T10:05:11.833Z,13.70
2018-09-14T10:07:39.975Z,13.10
2018-09-14T10:10:11.997Z,14.53
2018-09-14T10:12:40.341Z,12.53
2018-09-14T10:15:08.488Z,12.33
2018-09-14T10:17:36.512Z,12.77
2018-09-14T10:20:04.607Z,11.67
2018-09-14T10:22:32.710Z,12.93
2018-09-14T10:25:00.786Z,13.67
2018-09-14T10:27:28.884Z,14.37
2018-09-14T10:29:56.975Z,13.00
2018-09-14T10:32:25.081Z,12.07
2018-09-14T10:34:53.194Z,11.73
2018-09-14T10:37:21.270Z,8.75
2018-09-14T10:39:49.372Z,11.93
2018-09-14T10:42:17.684Z,11.33
2018-09-14T10:44:45.783Z,9.80
2018-09-14T10:47:13.868Z,10.17
2018-09-14T10:49:41.972Z,10.93
2018-09-14T10:52:10.095Z,11.90
2018-09-14T10:54:38.197Z,10.37
2018-09-14T10:57:06.271Z,10.63
2018-09-14T10:59:34.359Z,10.63
2018-09-14T11:02:02.447Z,11.20
2018-09-14T11:04:30.588Z,11.13
2018-09-14T11:06:58.687Z,12.07
2018-09-14T11:09:26.723Z,9.50
2018-09-14T11:11:54.797Z,11.30
2018-09-14T11:14:22.868Z,11.57
2018-09-14T11:16:50.955Z,13.00
2018-09-14T11:19:19.053Z,12.50
2018-09-14T11:21:47.132Z,11.17
2018-09-14T11:24:15.233Z,10.10
2018-09-14T11:26:43.331Z,11.37
2018-09-14T11:29:11.432Z,11.30
2018-09-14T11:31:39.540Z,9.10
2018-09-14T11:34:07.668Z,11.40
2018-09-14T11:36:35.788Z,10.50
2018-09-14T11:39:05.744Z,9.17
2018-09-14T11:41:33.856Z,8.87
2018-09-14T11:44:01.952Z,8.03
2018-09-14T11:46:30.047Z,8.50
2018-09-14T11:48:58.143Z,9.97
2018-09-14T11:51:26.231Z,8.98
2018-09-14T11:53:54.362Z,9.37
2018-09-14T11:56:22.469Z,9.10
2018-09-14T11:58:50.560Z,10.40
2018-09-14T12:01:18.667Z,10.68
2018-09-14T12:03:46.751Z,11.40
2018-09-14T12:06:14.834Z,9.90
2018-09-14T12:08:42.914Z,8.23
2018-09-14T12:11:10.991Z,9.20
2018-09-14T12:13:39.131Z,10.40
2018-09-14T12:16:07.238Z,9.70
2018-09-14T12:18:35.315Z,10.10
2018-09-14T12:21:03.411Z,9.93
2018-09-14T12:23:31.508Z,8.37
2018-09-14T12:26:02.487Z,8.43
2018-09-14T12:28:30.595Z,9.50
2018-09-14T12:30:58.667Z,9.17
2018-09-14T12:33:26.764Z,8.27
2018-09-14T12:35:54.841Z,8.50
2018-09-14T12:38:22.960Z,9.40
2018-09-14T12:40:51.208Z,8.93
2018-09-14T12:43:19.319Z,10.03
2018-09-14T12:45:47.410Z,9.33
2018-09-14T12:48:16.299Z,9.25
2018-09-14T12:50:44.395Z,7.20
2018-09-14T12:53:12.520Z,9.10
2018-09-14T12:55:40.680Z,11.00
2018-09-14T12:58:09.156Z,7.43
2018-09-14T13:00:37.227Z,8.73
2018-09-14T13:03:05.392Z,10.00
2018-09-14T13:05:33.500Z,9.93
2018-09-14T13:08:01.596Z,9.33
2018-09-14T13:10:30.020Z,7.90
2018-09-14T13:12:58.429Z,8.38
2018-09-14T13:15:26.507Z,9.45
2018-09-14T13:17:54.615Z,10.00
2018-09-14T13:20:22.776Z,9.80
2018-09-14T13:22:50.865Z,9.83
2018-09-14T13:25:18.964Z,9.93
2018-09-14T13:27:47.853Z,9.60
2018-09-14T13:30:15.994Z,8.15
2018-09-14T13:32:48.961Z,10.57
2018-09-14T13:38:19.806Z,10.68
2018-09-14T13:40:48.704Z,10.18
2018-09-14T13:43:16.857Z,8.37
2018-09-14T13:45:45.033Z,9.70
2018-09-14T13:48:13.327Z,9.93
2018-09-14T13:50:41.500Z,9.07
2018-09-14T13:53:09.738Z,9.63
2018-09-14T13:55:37.845Z,9.57
2018-09-14T13:58:06.554Z,9.48
2018-09-14T14:00:34.664Z,10.20
2018-09-14T14:03:02.777Z,8.65
2018-09-14T14:05:30.872Z,9.67
2018-09-14T14:07:58.968Z,7.20
2018-09-14T14:10:27.086Z,9.37
2018-09-14T14:12:55.192Z,9.47
2018-09-14T14:15:24.327Z,8.20
2018-09-14T14:17:52.499Z,5.90
2018-09-14T14:20:20.561Z,6.93
2018-09-14T14:22:48.684Z,6.73
2018-09-14T14:25:16.820Z,7.40
2018-09-14T14:27:44.938Z,7.27
2018-09-14T14:30:13.028Z,8.60
2018-09-14T14:32:41.125Z,6.73
2018-09-14T14:35:09.222Z,6.53
2018-09-14T14:37:37.378Z,6.03
2018-09-14T14:40:05.505Z,6.40
2018-09-14T14:42:33.610Z,6.77
2018-09-14T14:45:02.373Z,6.43
2018-09-14T14:47:30.782Z,7.23
2018-09-14T14:49:58.944Z,6.13
2018-09-14T14:52:27.013Z,7.70
2018-09-14T14:54:55.124Z,6.30
2018-09-14T14:57:23.282Z,6.30
2018-09-14T14:59:52.152Z,6.83
2018-09-14T15:02:20.248Z,9.30
2018-09-14T15:04:48.346Z,7.60
2018-09-14T15:07:16.455Z,7.10
2018-09-14T15:09:44.590Z,6.73
2018-09-14T15:12:12.708Z,7.60
2018-09-14T15:14:40.824Z,6.50
2018-09-14T15:17:08.927Z,7.33
2018-09-14T15:19:37.045Z,5.70
2018-09-14T15:22:05.160Z,5.60
2018-09-14T15:24:33.573Z,5.63
2018-09-14T15:27:01.677Z,4.37
2018-09-14T15:29:29.758Z,4.63
2018-09-14T15:31:57.890Z,5.67
2018-09-14T15:34:25.991Z,5.97
2018-09-14T15:36:54.121Z,5.47
2018-09-14T15:39:22.227Z,5.20
2018-09-14T15:41:50.386Z,6.30
2018-09-14T15:44:19.450Z,5.60
2018-09-14T15:46:47.572Z,4.93
2018-09-14T15:49:15.731Z,6.57
2018-09-14T15:51:43.811Z,5.47
2018-09-14T15:54:11.942Z,5.40
2018-09-14T15:56:40.044Z,5.50
2018-09-14T15:59:08.193Z,4.17
2018-09-14T16:01:36.632Z,4.40
2018-09-14T16:04:04.813Z,4.40
2018-09-14T16:06:32.948Z,3.57
2018-09-14T16:09:01.052Z,5.13
2018-09-14T16:11:29.169Z,4.22
2018-09-14T16:13:57.293Z,3.67
2018-09-14T16:16:25.450Z,4.40
2018-09-14T16:18:53.626Z,4.67
2018-09-14T16:21:21.691Z,4.47
2018-09-14T16:23:49.802Z,5.20
2018-09-14T16:26:17.911Z,4.37
2018-09-14T16:28:46.039Z,5.20
2018-09-14T16:31:14.123Z,5.10
2018-09-14T16:33:42.214Z,4.23
2018-09-14T16:36:10.317Z,4.50
2018-09-14T16:38:38.424Z,3.43
2018-09-14T16:41:06.569Z,4.50
2018-09-14T16:43:34.671Z,4.47
2018-09-14T16:46:02.773Z,4.70
2018-09-14T16:48:30.913Z,4.17
2018-09-14T16:50:59.064Z,4.17
2018-09-14T16:53:27.207Z,4.00
2018-09-14T16:55:55.309Z,3.83
2018-09-14T16:58:23.428Z,4.27
2018-09-14T17:00:51.529Z,3.80
2018-09-14T17:03:19.640Z,3.80
2018-09-14T17:05:47.750Z,3.63
2018-09-14T17:08:15.898Z,3.40
2018-09-14T17:10:44.051Z,3.23
2018-09-14T17:13:12.178Z,2.70
2018-09-14T17:15:40.265Z,3.20
2018-09-14T17:18:08.382Z,3.27
2018-09-14T17:20:36.468Z,2.90
2018-09-14T17:23:04.586Z,3.47
2018-09-14T17:25:32.667Z,3.40
2018-09-14T17:28:00.800Z,3.23
2018-09-14T17:30:28.923Z,3.20
2018-09-14T17:32:57.441Z,3.60
2018-09-14T17:35:25.543Z,3.67
2018-09-14T17:37:53.642Z,3.13
2018-09-14T17:40:21.751Z,4.10
2018-09-14T17:42:49.834Z,4.10
2018-09-14T17:45:17.946Z,3.47
2018-09-14T17:47:46.102Z,2.73
2018-09-14T17:50:14.151Z,3.50
2018-09-14T17:52:42.626Z,3.23
2018-09-14T17:55:10.747Z,3.67
2018-09-14T17:57:39.863Z,3.07
2018-09-14T18:00:09.621Z,3.22
2018-09-14T18:02:37.987Z,3.40
2018-09-14T18:05:06.130Z,3.10
2018-09-14T18:07:34.240Z,3.20
2018-09-14T18:10:02.356Z,2.97
2018-09-14T18:12:30.447Z,3.40
2018-09-14T18:14:58.571Z,3.80
2018-09-14T18:17:26.675Z,4.50
2018-09-14T18:19:54.795Z,4.03
2018-09-14T18:22:22.894Z,4.10
2018-09-14T18:24:51.048Z,4.67
2018-09-14T18:27:19.166Z,3.87
2018-09-14T18:29:47.294Z,4.20
2018-09-14T18:32:15.402Z,4.10
2018-09-14T18:34:43.820Z,4.63
2018-09-14T18:37:12.000Z,3.70
2018-09-14T18:39:40.116Z,3.87
2018-09-14T18:42:08.228Z,4.60
2018-09-14T18:44:36.339Z,3.92
2018-09-14T18:47:04.451Z,3.90
2018-09-14T18:49:32.564Z,4.80
2018-09-14T18:52:01.022Z,3.23
2018-09-14T18:54:29.784Z,3.70
2018-09-14T18:56:57.892Z,4.60
2018-09-14T18:59:26.116Z,4.50
2018-09-14T19:01:55.109Z,3.40
2018-09-14T19:04:23.206Z,4.23
2018-09-14T19:06:51.663Z,4.00
2018-09-14T19:09:19.789Z,4.53
2018-09-14T19:11:47.923Z,3.97
2018-09-14T19:14:16.034Z,4.73
2018-09-14T19:16:44.188Z,4.03
2018-09-14T19:19:12.312Z,4.37
2018-09-14T19:21:40.431Z,5.17
2018-09-14T19:24:08.550Z,5.07
2018-09-14T19:26:36.855Z,4.90
2018-09-14T19:29:05.123Z,4.20
2018-09-14T19:31:33.235Z,4.10
2018-09-14T19:34:01.327Z,4.70
2018-09-14T19:36:29.450Z,4.83
2018-09-14T19:38:57.548Z,4.17
2018-09-14T19:41:25.874Z,5.07
2018-09-14T19:43:53.950Z,4.40
2018-09-14T19:46:22.055Z,4.57
2018-09-14T19:48:50.139Z,5.00
2018-09-14T19:51:18.371Z,5.78
2018-09-14T19:53:46.742Z,5.05
2018-09-14T19:56:14.826Z,5.13
2018-09-14T19:58:42.900Z,4.97
2018-09-14T20:01:11.472Z,5.43
2018-09-14T20:03:40.044Z,4.87
2018-09-14T20:06:08.774Z,5.35
2018-09-14T20:08:36.828Z,5.15
2018-09-14T20:11:04.918Z,5.07
2018-09-14T20:13:33.007Z,5.40
2018-09-14T20:16:01.167Z,5.90
2018-09-14T20:18:29.460Z,4.60
2018-09-14T20:20:57.384Z,5.60
2018-09-14T20:23:25.505Z,5.40
2018-09-14T20:25:53.604Z,5.00
2018-09-14T20:28:21.707Z,5.30
2018-09-14T20:30:49.827Z,5.90
2018-09-14T20:33:17.910Z,5.13
2018-09-14T20:35:45.983Z,4.70
2018-09-14T20:38:14.104Z,3.93
2018-09-14T20:40:42.195Z,4.90
2018-09-14T20:43:10.345Z,4.80
2018-09-14T20:45:38.416Z,6.12
2018-09-14T20:48:07.519Z,4.27
2018-09-14T20:50:35.646Z,4.67
2018-09-14T20:53:04.015Z,5.20
2018-09-14T20:55:32.100Z,4.70
2018-09-14T20:58:00.220Z,5.30
2018-09-14T21:00:28.312Z,5.60
2018-09-14T21:02:56.443Z,5.63
2018-09-14T21:05:24.578Z,4.33
2018-09-14T21:07:52.669Z,4.80
2018-09-14T21:10:20.812Z,5.77
2018-09-14T21:12:48.980Z,5.37
2018-09-14T21:15:17.065Z,5.33
2018-09-14T21:17:45.167Z,5.50
2018-09-14T21:20:13.300Z,5.60
2018-09-14T21:22:42.759Z,6.73
2018-09-14T21:25:10.988Z,4.73
2018-09-14T21:27:39.115Z,5.00
2018-09-14T21:30:07.940Z,5.10
2018-09-14T21:32:37.362Z,6.43
2018-09-14T21:35:07.031Z,6.07
2018-09-14T21:37:35.157Z,5.20
2018-09-14T21:40:03.524Z,6.33
2018-09-14T21:42:32.713Z,6.00
2018-09-14T21:45:00.847Z,6.10
2018-09-14T21:47:29.253Z,6.30
2018-09-14T21:49:57.415Z,6.00
2018-09-14T21:52:26.418Z,6.80
2018-09-14T21:54:54.560Z,7.27
2018-09-14T21:57:22.894Z,6.40
